createdAt,value
2022-12-08T00:03:04.534Z,4.66
2022-12-08T00:06:28.529Z,4.51
2022-12-08T00:09:45.068Z,4.73
2022-12-08T00:12:50.142Z,4.38
2022-12-08T00:15:55.840Z,4.62
2022-12-08T00:19:02.097Z,4.46
2022-12-08T00:22:07.216Z,4.26
2022-12-08T00:25:12.768Z,4.12
2022-12-08T00:28:19.508Z,4.04
2022-12-08T00:31:25.196Z,4.06
2022-12-08T00:34:30.613Z,4.24
2022-12-08T00:37:36.285Z,4.11
2022-12-08T00:40:42.728Z,3.91
2022-12-08T00:43:49.098Z,4.03
2022-12-08T00:46:54.217Z,4.19
2022-12-08T00:50:00.784Z,4.18
2022-12-08T00:53:06.453Z,4.57
2022-12-08T00:56:12.520Z,4.32
2022-12-08T00:59:20.196Z,4.77
2022-12-08T01:02:25.300Z,4.82
2022-12-08T01:05:32.147Z,4.86
2022-12-08T01:08:39.043Z,5.22
2022-12-08T01:11:44.917Z,4.83
2022-12-08T01:14:51.860Z,4.88
2022-12-08T01:17:57.673Z,4.66
2022-12-08T01:21:03.640Z,4.81
2022-12-08T01:24:10.407Z,4.40
2022-12-08T01:27:16.073Z,4.41
2022-12-08T01:30:23.552Z,4.52
2022-12-08T01:33:29.460Z,4.63
2022-12-08T04:17:42.265Z,3.92
2022-12-08T04:20:48.294Z,4.28
2022-12-08T04:23:57.626Z,3.97
2022-12-08T04:27:00.680Z,4.03
2022-12-08T04:30:06.834Z,3.70
2022-12-08T04:33:13.325Z,3.91
2022-12-08T04:36:20.879Z,3.98
2022-12-08T04:39:26.319Z,4.22
2022-12-08T04:42:31.726Z,4.16
2022-12-08T04:45:38.486Z,4.13
2022-12-08T04:48:44.345Z,4.11
2022-12-08T04:51:50.168Z,3.90
2022-12-08T04:54:55.902Z,4.63
2022-12-08T04:58:02.506Z,4.16
2022-12-08T05:01:09.149Z,4.22
2022-12-08T05:04:15.750Z,4.80
2022-12-08T05:07:21.798Z,4.35
2022-12-08T05:10:27.831Z,4.43
2022-12-08T05:13:35.502Z,4.30
2022-12-08T05:16:41.462Z,4.40
2022-12-08T05:19:48.148Z,4.03
2022-12-08T05:22:54.264Z,4.38
2022-12-08T05:25:59.328Z,4.71
2022-12-08T05:29:05.777Z,4.63
2022-12-08T05:32:11.588Z,4.29
2022-12-08T05:35:16.917Z,4.79
2022-12-08T05:38:21.925Z,4.74
2022-12-08T05:41:30.603Z,4.66
2022-12-08T05:44:35.537Z,4.36
2022-12-08T05:47:41.671Z,4.06
2022-12-08T05:50:46.676Z,4.12
2022-12-08T05:53:52.782Z,4.55
2022-12-08T05:56:58.041Z,4.30
2022-12-08T06:00:06.472Z,4.58
2022-12-08T06:03:12.662Z,4.12
2022-12-08T06:06:18.957Z,4.24
2022-12-08T06:09:24.829Z,4.03
2022-12-08T06:12:30.586Z,4.03
2022-12-08T06:15:37.146Z,4.32
2022-12-08T06:18:43.113Z,4.18
2022-12-08T06:21:48.144Z,4.18
2022-12-08T06:24:54.809Z,4.44
2022-12-08T06:28:02.265Z,4.54
2022-12-08T06:31:09.193Z,4.59
2022-12-08T06:34:14.128Z,4.92
2022-12-08T06:37:19.787Z,5.19
2022-12-08T06:40:27.270Z,5.09
2022-12-08T06:43:34.084Z,5.25
2022-12-08T06:46:40.487Z,5.03
2022-12-08T06:49:45.138Z,4.98
2022-12-08T06:53:01.081Z,4.83
2022-12-08T06:56:08.326Z,4.82
2022-12-08T06:59:13.875Z,5.02
2022-12-08T07:02:20.419Z,4.87
2022-12-08T21:20:56.080Z,4.01
2022-12-08T21:24:01.856Z,4.26
2022-12-08T21:27:08.423Z,4.09
2022-12-08T21:30:14.749Z,4.26
2022-12-08T21:33:15.727Z,4.51
2022-12-08T21:36:26.628Z,4.71
2022-12-08T21:39:32.070Z,4.61
2022-12-08T21:42:52.123Z,4.73
2022-12-08T21:45:56.399Z,4.66
2022-12-08T21:49:01.516Z,4.60
2022-12-08T21:52:06.247Z,4.68
2022-12-08T21:55:13.015Z,4.58
2022-12-08T21:58:18.519Z,4.62
2022-12-08T22:01:24.965Z,4.30
2022-12-08T22:04:33.868Z,4.24
2022-12-08T22:07:40.776Z,4.37
2022-12-08T22:10:47.337Z,4.46
2022-12-08T22:13:55.131Z,4.58
2022-12-08T22:17:01.479Z,4.41
2022-12-08T22:20:07.868Z,4.60
2022-12-08T22:23:12.651Z,4.55
2022-12-08T22:26:17.942Z,4.59
2022-12-08T22:29:23.348Z,4.70
2022-12-08T22:32:28.657Z,4.71
2022-12-08T22:35:34.499Z,4.79
2022-12-08T22:38:40.579Z,4.76
2022-12-08T22:41:39.638Z,4.85
2022-12-08T22:44:45.325Z,4.74
2022-12-08T22:47:50.825Z,4.93
2022-12-08T22:50:55.884Z,4.85
2022-12-08T22:54:01.104Z,5.20
2022-12-08T22:57:07.152Z,5.39
2022-12-08T23:00:13.504Z,5.33
2022-12-08T23:03:20.140Z,5.53
2022-12-08T23:06:28.908Z,4.96
2022-12-08T23:09:34.544Z,5.47
2022-12-08T23:12:40.295Z,5.31
2022-12-08T23:15:46.373Z,5.33
2022-12-08T23:18:53.183Z,5.17
2022-12-08T23:21:58.299Z,4.91
2022-12-08T23:25:03.418Z,5.29
2022-12-08T23:28:07.895Z,5.30
2022-12-08T23:31:07.067Z,5.63
2022-12-08T23:33:59.434Z,5.67
2022-12-08T23:37:05.017Z,5.23
2022-12-08T23:40:10.820Z,5.46
2022-12-08T23:43:16.557Z,5.35
2022-12-08T23:46:22.596Z,5.26
2022-12-08T23:49:30.744Z,5.41
2022-12-08T23:52:35.724Z,5.64
2022-12-08T23:55:42.585Z,5.64
2022-12-08T23:58:48.107Z,5.75
